Flight Track Log - Related Links

Times and Time Zones

All times are in EDT time to prevent confusion due to time zone crossing. See the N762NC flight status page for this flight to view local times or setup timezone preferences in your user account.

Time Position Orientation Groundspeed Altitude Reporting Facility
EDT Latitude Longitude Course Direction KTS MPH feet Rate Location/Type
Wed 05:54:40 PM 33.6561 -84.3608 342° North 435 501 2,600  Level Atlanta Center
Wed 05:55:40 PM 33.6981 -84.2936 53° Northeast 321 369 5,000 2,500 Climbing Atlanta Center
Wed 05:56:40 PM 33.7689 -84.2936 360° North 266 306 7,600 2,450 Climbing Atlanta Center
Wed 05:57:00 PM 34.0827 -84.5944 349° North  Level Estimated
Wed 05:57:40 PM 33.8461 -84.3089 351° North 284 327 9,900  Level Atlanta Center
Wed 05:58:00 PM 34.1989 -84.6077 355° North  Level FlightAware Approximate
Wed 05:58:40 PM 33.9317 -84.3342 346° North 306 352 11,100  Level Atlanta Center
Wed 05:59:00 PM 34.3151 -84.6210 355° North  Level FlightAware Approximate
Wed 05:59:40 PM 34.0275 -84.3647 345° North 341 392 12,000  Level Atlanta Center
Wed 06:00:00 PM 34.4263 -84.6639 342° North  Level Estimated
Wed 06:00:40 PM 34.1297 -84.3900 348° North 365 420 14,500  Level Atlanta Center
Wed 06:01:40 PM 34.2342 -84.4233 345° North 376 433 16,300 1,800 Climbing Atlanta Center
Wed 06:02:40 PM 34.3425 -84.4489 349° North 383 441 18,100 1,700 Climbing Atlanta Center
Wed 06:03:40 PM 34.4572 -84.4772 348° North 403 464 19,700 1,450 Climbing Atlanta Center
Wed 06:04:40 PM 34.5572 -84.5053 347° North 403 464 21,000 1,500 Climbing Atlanta Center
Wed 06:05:40 PM 34.6822 -84.5389 348° North 422 486 22,700 1,450 Climbing Atlanta Center
Wed 06:06:40 PM 34.8011 -84.5725 347° North 427 491 23,900 1,300 Climbing Atlanta Center
Wed 06:07:40 PM 34.9200 -84.6111 345° North 433 498 25,300 1,150 Climbing Atlanta Center
Wed 06:08:40 PM 35.0428 -84.6450 347° North 433 498 26,200 1,050 Climbing Atlanta Center
Wed 06:09:40 PM 35.1533 -84.6714 349° North 445 512 27,400 1,250 Climbing Atlanta Center
Wed 06:10:40 PM 35.2783 -84.7078 347° North 450 518 28,700 1,350 Climbing Atlanta Center
Wed 06:11:40 PM 35.3992 -84.7469 345° North 450 518 30,100 1,250 Climbing Atlanta Center
Wed 06:12:40 PM 35.5219 -84.7761 349° North 450 518 31,200 950 Climbing Atlanta Center
Wed 06:13:40 PM 35.6386 -84.8131 346° North 444 511 32,000 400 Climbing Atlanta Center
Wed 06:14:40 PM 35.7572 -84.8447 348° North 444 511 32,000 400 Level Atlanta Center
Wed 06:15:40 PM 35.8989 -84.8769 350° North 451 519 32,800 813 Climbing Atlanta Center
Wed 06:16:16 PM 35.9703 -84.8986 346° North 449 517 33,300 735 Climbing Indianapolis Center
Wed 06:17:18 PM 36.0833 -84.9297 347° North 436 502 34,000 339 Climbing Indianapolis Center
Wed 06:18:20 PM 36.2025 -84.9592 349° North 437 503 34,000  Level Indianapolis Center
Wed 06:19:22 PM 36.3189 -85.0106 340° North 443 510 34,000  Level Indianapolis Center
Wed 06:20:25 PM 36.4603 -85.0647 343° North 441 507 34,000  Level Indianapolis Center
Wed 06:21:27 PM 36.5750 -85.1203 339° North 442 509 34,000  Level Indianapolis Center
Wed 06:22:29 PM 36.6875 -85.1817 336° Northwest 441 507 34,000  Level Indianapolis Center
Wed 06:23:31 PM 36.8011 -85.2406 337° Northwest 443 510 34,000  Level Indianapolis Center
Wed 06:24:33 PM 36.9156 -85.2978 338° Northwest 443 510 34,000  Level Indianapolis Center
Wed 06:25:35 PM 37.0500 -85.3564 341° North 445 512 34,000  Level Indianapolis Center
Wed 06:26:37 PM 37.1700 -85.3975 345° North 445 512 34,000  Level Indianapolis Center
Wed 06:27:39 PM 37.2914 -85.4325 347° North 446 513 34,000  Level Indianapolis Center
Wed 06:28:41 PM 37.4178 -85.4353 359° North 453 521 34,000  Level Indianapolis Center
Wed 06:29:43 PM 37.5439 -85.4364 360° North 453 521 34,000  Level Indianapolis Center
Wed 06:30:45 PM 37.6650 -85.4514 354° North 441 507 34,000  Level Indianapolis Center
Wed 06:31:47 PM 37.8114 -85.4561 359° North 447 514 34,000 -435 Level Indianapolis Center
Wed 06:32:49 PM 37.9439 -85.4597 359° North 462 532 33,100 -435 Descending Indianapolis Center
Wed 06:33:51 PM 38.0739 -85.4731 355° North 469 540 33,100 -48 Level Indianapolis Center
Wed 06:34:53 PM 38.2028 -85.4797 358° North 464 534 33,000 -48 Descending Indianapolis Center
Wed 06:35:55 PM 38.3319 -85.4817 359° North 465 535 33,000  Level Indianapolis Center
Wed 06:36:57 PM 38.4589 -85.4939 356° North 460 529 33,000  Level Indianapolis Center
Wed 06:37:59 PM 38.5867 -85.5047 356° North 459 528 33,000  Level Indianapolis Center
Wed 06:39:01 PM 38.7311 -85.5086 359° North 460 529 33,000  Level Indianapolis Center
Wed 06:40:03 PM 38.8569 -85.5228 355° North 457 526 33,000 -144 Level Indianapolis Center
Wed 06:41:06 PM 38.9833 -85.5344 356° North 456 525 32,700 -528 Descending Indianapolis Center
Wed 06:42:08 PM 39.1133 -85.5383 359° North 468 539 31,900 -871 Descending Indianapolis Center
Wed 06:43:10 PM 39.2636 -85.5778 349° North 463 533 30,900 -871 Descending Indianapolis Center
Wed 06:44:12 PM 39.3886 -85.6153 347° North 462 532 30,100 -823 Descending Indianapolis Center
Wed 06:45:14 PM 39.5169 -85.6108 North 465 535 29,200 -532 Descending Indianapolis Center
Wed 06:46:16 PM 39.6436 -85.5986 North 463 533 29,000 -290 Descending Indianapolis Center
Wed 06:47:18 PM 39.7892 -85.6008 359° North 443 510 28,600 -774 Descending Indianapolis Center
Wed 06:48:20 PM 39.9128 -85.5981 North 445 512 27,400 -1,161 Descending Indianapolis Center
Wed 06:49:22 PM 40.0394 -85.5875 North 455 524 26,200 -677 Descending Indianapolis Center
Wed 06:50:24 PM 40.1653 -85.6119 352° North 458 527 26,000 -97 Descending Indianapolis Center
Wed 06:51:26 PM 40.2886 -85.6353 352° North 454 522 26,000 -145 Level Indianapolis Center
Wed 06:52:28 PM 40.4372 -85.6672 351° North 454 522 25,700 -435 Descending Indianapolis Center
Wed 06:53:30 PM 40.5614 -85.7036 347° North 459 528 25,100 -655 Descending Indianapolis Center
Wed 06:54:27 PM 40.6667 -85.8081 323° Northwest 473 544 24,400 -605 Descending Chicago Center
Wed 06:55:29 PM 40.7283 -85.9586 298° West 474 545 23,900 -528 Descending Chicago Center
Wed 06:56:32 PM 40.7972 -86.1008 303° West 465 535 23,300 -624 Descending Chicago Center
Wed 06:57:34 PM 40.8711 -86.2347 306° West 454 522 22,600 -774 Descending Chicago Center
Wed 06:58:36 PM 40.9497 -86.3628 309° West 449 517 21,700 -871 Descending Chicago Center
Wed 06:59:38 PM 41.0256 -86.4933 308° West 448 516 20,800 -968 Descending Chicago Center
Wed 07:00:40 PM 41.1167 -86.6528 307° West 451 519 19,700 -1,065 Descending Chicago Center
Wed 07:01:42 PM 41.1917 -86.7708 310° West 447 514 18,600 -1,790 Descending Chicago Center
Wed 07:02:44 PM 41.2714 -86.8858 313° West 427 491 16,000 -2,710 Descending Chicago Center
Wed 07:03:46 PM 41.3422 -87.0000 310° West 410 472 13,000 -2,419 Descending Chicago Center
Wed 07:04:48 PM 41.4275 -87.1247 312° West 385 443 11,000 -968 Descending Chicago Center
Wed 07:05:50 PM 41.4919 -87.2250 311° West 365 420 11,000 -194 Level Chicago Center
Wed 07:06:52 PM 41.5486 -87.3333 305° West 366 421 10,600 -435 Descending Chicago Center
Wed 07:07:54 PM 41.5839 -87.4544 291° West 358 412 10,100 -288 Descending Chicago Center
Wed 07:08:57 PM 41.6625 -87.5731 312° West 358 412 10,000 -48 Descending Chicago Center
Wed 07:09:59 PM 41.7389 -87.6581 320° Northwest 362 417 10,000 -48 Level Chicago Center
Wed 07:11:01 PM 41.8128 -87.7378 321° Northwest 347 399 9,900 -774 Descending Chicago Center
Wed 07:12:03 PM 41.8600 -87.8208 307° West 290 334 8,400 -1,403 Descending Chicago Center
Wed 07:13:05 PM 41.8978 -87.9100 300° West 280 322 7,000 -632 Descending Chicago Center
Wed 07:14:16 PM 41.9500 -88.0167 303° West 261 300 7,000 -504 Level Chicago TRACON
Wed 07:15:16 PM 42.0000 -88.0833 315° West 240 276 5,900 -1,350 Descending Chicago TRACON
Wed 07:16:16 PM 42.0500 -88.1333 323° Northwest 247 284 4,300 -1,333 Descending Chicago TRACON
Wed 07:17:13 PM 42.0908 -88.0911 37° Northeast 234 269 3,300 -807 Descending Chicago Center
Wed 07:18:15 PM 42.0708 -88.0242 112° Southeast 201 231 2,700 -763 Descending Chicago Center
Wed 07:19:11 PM 42.0333 -87.9833 141° Southeast 129 148 1,800 -776 Descending Chicago TRACON
Wed 07:20:11 PM 42.0167 -87.9500 124° Southeast 131 151 1,200 -600 Descending Chicago TRACON

Login

Don't have an account? Register now (free) for customized features, flight alerts, and more!